Time;durP1;ratioP1;P1;durP2;ratioP2;P2;SDS_P1;SDS_P2;PMS_P1;PMS_P2;Temp;Humidity;BMP_temperature;BMP_pressure;BME280_temperature;BME280_humidity;BME280_pressure;Samples;Min_cycle;Max_cycle;Signal;HPM_P1;HPM_P2
2022/11/21 00:02:23;;;;;;;18.97;10.27;;;;;;;5.29;86.63;98684.63;5048549;28;20952;-84
2022/11/21 00:04:48;;;;;;;20.37;10.20;;;;;;;5.32;86.48;98691.44;5031869;28;20282;-84
2022/11/21 00:07:14;;;;;;;18.80;10.17;;;;;;;5.32;87.35;98689.53;5031810;28;20263;-85
2022/11/21 00:09:39;;;;;;;16.70;9.70;;;;;;;5.16;87.59;98695.88;5040194;28;20778;-84
2022/11/21 00:12:04;;;;;;;20.00;10.17;;;;;;;5.26;86.37;98693.28;5052336;28;20363;-83
2022/11/21 00:14:30;;;;;;;18.40;10.60;;;;;;;5.28;86.41;98695.72;5053310;28;20266;-86
2022/11/21 00:16:55;;;;;;;18.97;9.67;;;;;;;5.25;85.59;98700.56;5053368;28;20051;-86
2022/11/21 00:19:20;;;;;;;16.88;10.35;;;;;;;5.01;87.21;98697.34;5053189;28;20261;-87
2022/11/21 00:21:46;;;;;;;19.80;9.00;;;;;;;4.93;86.23;98704.00;5052791;28;20433;-84
2022/11/21 00:24:11;;;;;;;15.88;10.30;;;;;;;5.05;85.86;98705.75;5052415;28;20269;-85
2022/11/21 00:26:36;;;;;;;19.08;10.30;;;;;;;5.09;85.63;98705.00;5052397;28;20490;-84
2022/11/21 00:29:02;;;;;;;17.63;10.00;;;;;;;5.02;86.78;98713.28;5073465;28;20033;-83
2022/11/21 00:31:27;;;;;;;17.63;11.40;;;;;;;4.93;85.83;98717.53;5055697;28;20118;-84
2022/11/21 00:33:52;;;;;;;15.85;10.35;;;;;;;5.09;86.38;98717.69;5035901;28;20079;-85
2022/11/21 00:36:17;;;;;;;19.33;9.98;;;;;;;4.98;86.06;98711.38;5052602;28;20055;-84
2022/11/21 00:38:43;;;;;;;19.10;9.93;;;;;;;5.00;85.83;98725.44;5051869;28;20025;-85
2022/11/21 00:41:08;;;;;;;24.95;13.50;;;;;;;4.93;85.96;98724.81;5052233;28;20044;-84
2022/11/21 00:43:34;;;;;;;19.10;10.87;;;;;;;4.84;85.77;98722.53;5039269;28;20040;-85
2022/11/21 00:46:01;;;;;;;20.15;14.23;;;;;;;4.59;86.68;98717.66;5030090;28;20759;-86
2022/11/21 00:48:26;;;;;;;24.90;14.10;;;;;;;4.62;86.65;98722.53;5032699;28;20072;-86
2022/11/21 00:50:52;;;;;;;21.77;11.38;;;;;;;4.61;86.59;98718.22;5032373;28;20472;-86
2022/11/21 00:53:17;;;;;;;19.80;11.27;;;;;;;4.57;86.23;98722.50;5037002;28;20031;-85
2022/11/21 00:55:42;;;;;;;20.25;11.20;;;;;;;4.93;85.85;98724.81;5051164;28;20247;-84
2022/11/21 00:58:07;;;;;;;26.25;13.02;;;;;;;4.90;85.54;98726.16;5038988;28;20390;-84
2022/11/21 01:00:33;;;;;;;18.90;11.68;;;;;;;4.76;85.96;98731.91;5032304;28;20083;-83
2022/11/21 01:02:58;;;;;;;19.43;12.30;;;;;;;4.94;85.87;98735.38;5038345;28;20227;-86
2022/11/21 01:05:23;;;;;;;23.05;12.23;;;;;;;5.17;84.47;98728.03;5052640;28;20304;-84
2022/11/21 01:07:49;;;;;;;20.55;13.45;;;;;;;5.06;85.08;98735.25;5051544;28;20063;-84
2022/11/21 01:10:14;;;;;;;23.08;14.48;;;;;;;4.99;84.79;98727.31;5051412;28;20055;-84
2022/11/21 01:12:39;;;;;;;23.58;12.13;;;;;;;4.95;85.15;98734.28;5051012;28;20559;-84
2022/11/21 01:15:05;;;;;;;23.30;11.90;;;;;;;5.00;84.80;98736.25;5051654;28;20033;-84
2022/11/21 01:17:32;;;;;;;22.73;10.88;;;;;;;4.99;84.43;98730.03;5051478;28;20273;-84
2022/11/21 01:19:57;;;;;;;21.67;11.98;;;;;;;5.00;84.57;98731.63;5051724;28;20025;-85
2022/11/21 01:22:22;;;;;;;19.90;11.80;;;;;;;4.99;84.12;98740.00;5047655;28;20037;-85
2022/11/21 01:24:48;;;;;;;20.58;13.52;;;;;;;4.82;85.27;98740.09;5031260;28;20088;-84
2022/11/21 01:27:13;;;;;;;24.23;13.13;;;;;;;4.89;84.17;98740.69;5042406;28;20045;-84
2022/11/21 01:29:38;;;;;;;23.07;13.47;;;;;;;4.89;84.92;98743.41;5030394;28;20270;-84
2022/11/21 01:32:03;;;;;;;21.83;14.30;;;;;;;4.90;85.32;98747.75;5031946;28;20297;-84
2022/11/21 01:34:29;;;;;;;21.08;13.02;;;;;;;5.05;83.81;98748.97;5032098;28;20255;-84
2022/11/21 01:36:54;;;;;;;29.13;13.83;;;;;;;5.01;84.35;98752.19;5044228;28;20068;-84
2022/11/21 01:39:19;;;;;;;23.95;13.07;;;;;;;4.82;84.94;98745.50;5042221;28;20265;-84
2022/11/21 01:41:45;;;;;;;26.05;13.23;;;;;;;5.01;84.26;98748.66;5041516;28;20116;-84
2022/11/21 01:44:20;;;;;;;28.70;13.63;;;;;;;4.86;84.98;98746.63;5050757;28;20328;-82
2022/11/21 01:46:47;;;;;;;26.67;14.32;;;;;;;4.86;84.43;98742.00;5051217;28;20029;-84
2022/11/21 01:49:23;;;;;;;30.40;14.63;;;;;;;4.70;85.30;98749.13;5050090;28;20121;-85
2022/11/21 01:51:51;;;;;;;23.02;14.05;;;;;;;4.85;85.07;98755.78;5051018;28;20098;-84
2022/11/21 01:54:25;;;;;;;25.35;13.50;;;;;;;5.01;83.83;98744.09;5051327;28;20075;-84
2022/11/21 01:56:59;;;;;;;;;;;;;;;4.97;83.71;98751.06;5050812;28;20397;-85
2022/11/21 01:59:51;;;;;;;25.13;15.00;;;;;;;4.94;84.16;98751.59;5051711;28;20405;-85
2022/11/21 02:02:20;;;;;;;27.23;13.13;;;;;;;4.94;85.05;98753.47;5039631;28;20043;-85
2022/11/21 02:04:46;;;;;;;28.20;16.40;;;;;;;4.77;84.87;98751.63;5030310;28;20025;-84
2022/11/21 02:07:13;;;;;;;27.77;16.80;;;;;;;4.88;84.40;98745.28;5039226;28;20116;-85
2022/11/21 02:09:42;;;;;;;29.27;16.50;;;;;;;4.90;84.60;98748.53;5051427;28;20134;-85
2022/11/21 02:12:13;;;;;;;28.20;16.38;;;;;;;4.93;84.72;98749.94;5046741;28;20044;-85
2022/11/21 02:14:41;;;;;;;26.08;16.45;;;;;;;4.74;86.24;98749.44;5034387;28;20041;-84
2022/11/21 02:17:08;;;;;;;33.60;17.02;;;;;;;4.77;85.77;98751.63;5031317;28;20117;-84
2022/11/21 02:19:46;;;;;;;28.95;16.85;;;;;;;4.91;84.60;98757.47;5034895;28;20028;-84
2022/11/21 02:22:39;;;;;;;27.48;16.35;;;;;;;4.85;84.93;98745.81;5042928;28;20051;-85
2022/11/21 02:25:10;;;;;;;30.50;17.85;;;;;;;4.79;85.04;98744.94;5031690;28;20044;-85
2022/11/21 02:27:36;;;;;;;32.03;15.48;;;;;;;4.96;84.86;98745.91;5052815;28;20509;-85
2022/11/21 02:30:03;;;;;;;23.30;16.33;;;;;;;5.09;83.89;98747.41;5071046;28;20043;-85
2022/11/21 02:32:35;;;;;;;24.23;14.75;;;;;;;5.17;83.99;98741.53;5048835;28;20047;-85
2022/11/21 02:35:00;;;;;;;28.13;17.40;;;;;;;5.22;82.91;98741.63;5050567;28;20025;-84
2022/11/21 02:37:25;;;;;;;26.45;16.55;;;;;;;4.92;84.47;98751.03;5050151;28;20032;-85
2022/11/21 02:39:52;;;;;;;24.00;13.93;;;;;;;5.01;84.44;98752.19;5046488;28;20024;-84
2022/11/21 02:42:26;;;;;;;27.30;18.38;;;;;;;5.17;83.83;98755.06;5035515;28;20032;-86
2022/11/21 02:44:57;;;;;;;;;;;;;;;5.05;83.55;98752.50;5038691;28;20031;-85
2022/11/21 02:47:24;;;;;;;27.25;14.63;;;;;;;5.13;83.09;98757.47;5040344;28;20377;-86
2022/11/21 02:50:21;;;;;;;25.55;15.30;;;;;;;4.72;84.68;98752.38;5039475;28;20048;-85
2022/11/21 02:52:46;;;;;;;30.10;15.20;;;;;;;4.65;84.93;98754.47;5038382;28;20044;-85
2022/11/21 02:55:14;;;;;;;30.10;16.97;;;;;;;4.62;85.64;98750.38;5042236;28;20029;-84
2022/11/21 02:57:39;;;;;;;24.60;16.33;;;;;;;4.75;84.95;98748.38;5040004;28;20737;-85
2022/11/21 03:00:05;;;;;;;25.88;15.98;;;;;;;4.91;84.32;98746.66;5043677;28;20025;-84
2022/11/21 03:02:30;;;;;;;25.70;16.08;;;;;;;4.86;84.81;98752.81;5038936;28;20450;-86
2022/11/21 03:04:56;;;;;;;28.55;16.35;;;;;;;5.10;83.70;98759.84;5041911;28;20116;-85
2022/11/21 03:07:21;;;;;;;29.63;16.92;;;;;;;5.06;83.80;98759.56;5030177;28;20746;-86
2022/11/21 03:09:46;;;;;;;29.30;15.93;;;;;;;5.14;83.51;98772.63;5033634;28;20021;-85
2022/11/21 03:12:11;;;;;;;32.20;18.63;;;;;;;4.81;84.54;98765.44;5033647;28;20378;-85
2022/11/21 03:14:37;;;;;;;28.93;18.30;;;;;;;4.91;84.68;98757.47;5034314;28;20270;-85
2022/11/21 03:17:03;;;;;;;30.92;17.95;;;;;;;4.88;84.26;98761.50;5034460;28;20266;-85
2022/11/21 03:19:28;;;;;;;33.60;19.17;;;;;;;4.70;85.26;98764.53;5050202;28;20029;-85
2022/11/21 03:21:53;;;;;;;31.92;17.98;;;;;;;4.88;84.83;98760.69;5053825;28;20351;-85
2022/11/21 03:24:19;;;;;;;37.13;21.20;;;;;;;4.90;84.53;98761.25;5052942;28;20358;-85
2022/11/21 03:26:44;;;;;;;35.53;18.90;;;;;;;4.93;84.16;98747.25;5054089;28;20091;-85
2022/11/21 03:29:09;;;;;;;27.23;17.48;;;;;;;4.95;84.66;98753.19;5054229;28;20108;-85
2022/11/21 03:31:34;;;;;;;31.27;18.30;;;;;;;4.83;84.57;98753.34;5053729;28;20067;-84
2022/11/21 03:34:00;;;;;;;28.23;17.70;;;;;;;4.76;85.27;98755.41;5037183;28;20529;-86
2022/11/21 03:36:25;;;;;;;28.77;20.00;;;;;;;4.83;84.77;98752.50;5034133;28;20354;-85
2022/11/21 03:38:51;;;;;;;31.13;18.48;;;;;;;4.70;85.12;98764.53;5034019;28;20366;-86
2022/11/21 03:41:28;;;;;;;37.90;19.55;;;;;;;4.91;84.14;98754.78;5033514;28;20032;-85
2022/11/21 03:44:03;;;;;;;30.20;17.83;;;;;;;4.88;84.37;98763.41;5046999;28;20036;-83
2022/11/21 03:46:31;;;;;;;37.85;19.92;;;;;;;4.67;85.13;98761.25;5052587;28;20044;-85
2022/11/21 03:48:57;;;;;;;27.58;19.08;;;;;;;4.70;85.35;98757.22;5053035;28;20116;-85
2022/11/21 03:51:22;;;;;;;41.70;21.80;;;;;;;4.56;86.03;98754.06;5053574;28;20132;-85
2022/11/21 03:53:48;;;;;;;32.50;21.77;;;;;;;4.61;86.44;98756.03;5051909;28;20029;-85
2022/11/21 03:56:14;;;;;;;35.35;20.60;;;;;;;4.62;85.29;98752.25;5053942;28;20033;-85
2022/11/21 03:58:39;;;;;;;33.42;20.38;;;;;;;4.96;84.14;98751.31;5053562;28;20030;-85
2022/11/21 04:01:04;;;;;;;34.05;21.10;;;;;;;5.04;84.62;98760.88;5053744;28;20035;-84
2022/11/21 04:03:30;;;;;;;36.10;19.53;;;;;;;5.20;83.99;98762.69;5053357;28;20086;-84
2022/11/21 04:05:55;;;;;;;38.20;19.33;;;;;;;4.89;84.74;98757.72;5052996;28;20281;-85
2022/11/21 04:08:21;;;;;;;31.27;19.75;;;;;;;5.14;84.12;98771.78;5051958;28;20043;-85
2022/11/21 04:10:51;;;;;;;28.98;19.17;;;;;;;5.07;83.77;98763.03;5052065;28;20078;-85
2022/11/21 04:13:17;;;;;;;32.85;21.38;;;;;;;5.15;83.43;98757.19;5050948;28;20120;-84
2022/11/21 04:15:43;;;;;;;34.88;19.77;;;;;;;4.92;84.75;98756.44;5051971;28;20029;-85
2022/11/21 04:18:12;;;;;;;33.15;18.60;;;;;;;4.85;83.98;98758.47;5051523;28;20325;-85
2022/11/21 04:20:38;;;;;;;33.75;19.73;;;;;;;5.00;84.71;98755.94;5051964;28;20379;-84
2022/11/21 04:23:03;;;;;;;35.75;20.13;;;;;;;4.85;85.09;98755.78;5043659;28;20068;-84
2022/11/21 04:25:29;;;;;;;36.03;20.20;;;;;;;4.84;84.54;98752.25;5033460;28;20025;-85
2022/11/21 04:27:55;;;;;;;36.53;20.80;;;;;;;4.91;84.84;98757.47;5040467;28;20071;-84
2022/11/21 04:30:20;;;;;;;38.92;23.42;;;;;;;4.89;85.23;98746.09;5052569;28;20029;-84
2022/11/21 04:32:48;;;;;;;35.60;19.20;;;;;;;5.02;84.37;98756.50;5052665;28;20028;-84
2022/11/21 04:35:13;;;;;;;42.17;23.35;;;;;;;4.98;84.53;98766.19;5052706;28;20039;-84
2022/11/21 04:37:39;;;;;;;40.13;22.65;;;;;;;5.00;84.62;98760.56;5052400;28;20033;-84
2022/11/21 04:40:04;;;;;;;35.95;20.92;;;;;;;4.88;84.57;98760.69;5053003;28;20075;-84
2022/11/21 04:42:30;;;;;;;38.17;22.02;;;;;;;5.18;84.11;98759.41;5047991;28;20112;-85
2022/11/21 04:44:55;;;;;;;44.92;24.48;;;;;;;5.15;84.18;98759.91;5033196;28;20048;-86
2022/11/21 04:47:20;;;;;;;38.40;22.00;;;;;;;4.90;85.06;98766.66;5032222;28;20030;-85
2022/11/21 04:49:45;;;;;;;73.70;23.97;;;;;;;4.78;84.99;98759.47;5033028;28;20274;-84
2022/11/21 04:52:11;;;;;;;42.37;24.73;;;;;;;4.83;86.46;98766.00;5033876;28;20647;-84
2022/11/21 04:54:36;;;;;;;50.08;24.25;;;;;;;4.94;85.24;98759.69;5052779;28;20328;-85
2022/11/21 04:57:02;;;;;;;49.63;26.65;;;;;;;4.67;87.02;98760.44;5052623;28;20555;-84
2022/11/21 04:59:27;;;;;;;37.85;22.90;;;;;;;4.60;87.40;98754.38;5052032;28;20036;-85
2022/11/21 05:01:52;;;;;;;49.80;25.87;;;;;;;4.60;87.03;98762.47;5052513;28;20029;-85
2022/11/21 05:04:18;;;;;;;44.38;25.15;;;;;;;4.82;87.23;98767.09;5051708;28;20273;-86
2022/11/21 05:06:43;;;;;;;46.13;24.10;;;;;;;4.99;85.93;98765.13;5052650;28;20528;-84
2022/11/21 05:09:08;;;;;;;46.23;24.03;;;;;;;4.70;87.16;98764.53;5052080;28;20246;-84
2022/11/21 05:14:17;;;;;;;37.95;17.98;;;;;;;4.86;86.18;98763.63;5051616;28;20527;-85
2022/11/21 05:16:43;;;;;;;37.50;17.20;;;;;;;5.01;85.77;98754.91;5052232;28;20037;-85
2022/11/21 05:19:08;;;;;;;33.93;17.43;;;;;;;4.97;85.45;98753.78;5051581;28;20040;-84
2022/11/21 05:21:33;;;;;;;38.03;17.77;;;;;;;4.88;85.88;98750.69;5051905;28;20258;-85
2022/11/21 05:24:00;;;;;;;80.63;20.02;;;;;;;4.92;84.96;98750.19;5050246;28;20132;-85
2022/11/21 05:26:25;;;;;;;36.85;17.67;;;;;;;4.87;84.95;98745.53;5052176;28;20509;-85
2022/11/21 05:28:50;;;;;;;31.25;18.45;;;;;;;4.87;85.71;98748.25;5051874;28;20086;-85
2022/11/21 05:31:16;;;;;;;26.58;15.98;;;;;;;5.00;84.80;98747.06;5050987;28;20056;-85
2022/11/21 05:33:41;;;;;;;32.95;18.05;;;;;;;5.04;84.46;98752.75;5050878;28;20029;-85
2022/11/21 05:36:06;;;;;;;34.97;17.20;;;;;;;4.92;84.33;98751.03;5051615;28;20074;-85
2022/11/21 05:38:31;;;;;;;27.97;14.60;;;;;;;4.87;84.46;98759.03;5051903;28;20044;-85
2022/11/21 05:40:57;;;;;;;28.73;16.43;;;;;;;4.83;83.96;98761.44;5051725;28;20303;-85
2022/11/21 05:46:06;;;;;;;65.43;21.08;;;;;;;4.58;84.80;98762.72;5031806;28;20147;-85
2022/11/21 05:48:33;;;;;;;25.77;15.10;;;;;;;4.86;84.37;98760.91;5039046;28;20510;-84
2022/11/21 05:50:58;;;;;;;24.13;13.88;;;;;;;4.81;84.40;98758.16;5043575;28;20021;-84
2022/11/21 05:53:23;;;;;;;31.05;16.42;;;;;;;4.84;84.66;98754.16;5041349;28;20094;-85
2022/11/21 05:55:48;;;;;;;30.10;15.85;;;;;;;4.79;84.63;98757.59;5039845;28;20071;-85
2022/11/21 05:58:14;;;;;;;27.13;16.97;;;;;;;4.93;83.85;98759.91;5051351;28;20100;-85
2022/11/21 06:00:39;;;;;;;35.43;17.53;;;;;;;4.73;84.05;98759.44;5045299;28;20255;-84
2022/11/21 06:05:49;;;;;;;80.55;23.67;;;;;;;4.58;84.39;98751.13;5045475;28;20027;-84
2022/11/21 06:08:14;;;;;;;53.05;21.83;;;;;;;4.49;85.07;98754.28;5050690;28;20366;-85
2022/11/21 06:10:39;;;;;;;49.00;19.23;;;;;;;4.72;84.33;98757.78;5039475;28;20037;-85
2022/11/21 06:13:20;;;;;;;33.07;18.97;;;;;;;4.75;83.91;98748.38;5039567;28;20735;-84
2022/11/21 06:15:51;;;;;;;40.92;17.42;;;;;;;4.79;84.44;98750.31;5051113;28;20279;-84
2022/11/21 06:18:17;;;;;;;33.30;18.38;;;;;;;4.85;83.91;98744.97;5050664;28;20171;-84
2022/11/21 06:20:42;;;;;;;55.15;19.73;;;;;;;4.68;84.57;98743.16;5051138;28;20577;-84
2022/11/21 06:23:07;;;;;;;32.10;17.45;;;;;;;4.84;84.30;98744.16;5050249;28;20186;-84
2022/11/21 06:25:32;;;;;;;37.45;20.67;;;;;;;4.82;84.62;98750.91;5050825;28;20029;-84
2022/11/21 06:27:59;;;;;;;39.90;20.08;;;;;;;4.77;84.87;98741.66;5050366;28;20377;-86
2022/11/21 06:30:24;;;;;;;31.55;18.38;;;;;;;4.96;84.00;98735.94;5051042;28;20371;-85
2022/11/21 06:32:49;;;;;;;29.83;19.03;;;;;;;4.80;85.11;98740.31;5050058;28;20028;-85
2022/11/21 06:35:14;;;;;;;28.80;18.27;;;;;;;4.77;85.29;98728.16;5050646;28;20647;-85
2022/11/21 06:37:40;;;;;;;35.28;18.95;;;;;;;4.94;85.24;98732.69;5050493;28;20300;-85
2022/11/21 06:40:05;;;;;;;30.13;16.93;;;;;;;4.95;84.58;98728.91;5050700;28;20032;-85
2022/11/21 06:42:31;;;;;;;26.27;15.93;;;;;;;5.05;83.88;98713.84;5049611;28;20258;-85
2022/11/21 06:44:56;;;;;;;29.95;15.93;;;;;;;5.07;83.82;98711.72;5050216;28;20127;-85
2022/11/21 06:47:22;;;;;;;30.47;17.63;;;;;;;5.08;84.24;98716.06;5050464;28;20017;-84
2022/11/21 06:49:47;;;;;;;28.23;15.30;;;;;;;5.11;84.01;98712.84;5050075;28;20281;-84
2022/11/21 06:52:12;;;;;;;27.17;16.17;;;;;;;4.84;85.11;98721.75;5049674;28;20265;-84
2022/11/21 06:54:38;;;;;;;26.67;15.43;;;;;;;5.00;85.20;98726.22;5050310;28;20060;-84
2022/11/21 06:57:03;;;;;;;27.33;16.07;;;;;;;5.08;84.49;98716.06;5050674;28;20037;-84
2022/11/21 06:59:28;;;;;;;25.20;15.37;;;;;;;5.33;83.50;98720.09;5050340;28;20258;-84
2022/11/21 07:01:53;;;;;;;31.00;16.57;;;;;;;5.24;83.68;98725.16;5050443;28;20301;-85
2022/11/21 07:04:19;;;;;;;31.27;16.20;;;;;;;5.11;84.36;98721.78;5030350;28;20263;-84
2022/11/21 07:06:44;;;;;;;27.27;17.02;;;;;;;5.23;83.55;98723.50;5030119;28;20305;-84
2022/11/21 07:09:09;;;;;;;21.83;14.03;;;;;;;5.16;84.30;98723.72;5030439;28;20471;-85
2022/11/21 07:11:34;;;;;;;30.80;17.77;;;;;;;5.22;84.00;98727.28;5030044;28;20278;-84
2022/11/21 07:14:00;;;;;;;25.57;13.87;;;;;;;5.13;84.14;98724.22;5029777;28;20298;-85
2022/11/21 07:16:29;;;;;;;25.73;15.27;;;;;;;5.21;83.94;98710.25;5030406;28;20324;-84
2022/11/21 07:18:54;;;;;;;25.48;12.18;;;;;;;4.97;84.70;98715.13;5041258;28;20044;-84
2022/11/21 07:21:20;;;;;;;23.08;13.38;;;;;;;5.03;84.73;98730.31;5050796;28;20053;-84
2022/11/21 07:23:45;;;;;;;19.27;12.68;;;;;;;5.01;85.16;98732.47;5035986;28;20114;-85
2022/11/21 07:26:11;;;;;;;24.73;12.98;;;;;;;5.00;84.48;98736.25;5031309;28;20029;-85
2022/11/21 07:28:36;;;;;;;24.73;13.40;;;;;;;5.25;84.13;98735.69;5030845;28;20017;-84
2022/11/21 07:31:02;;;;;;;23.10;12.85;;;;;;;5.28;84.16;98726.28;5030806;28;20496;-84
2022/11/21 07:33:28;;;;;;;22.70;13.95;;;;;;;5.32;83.84;98731.97;5041757;28;20033;-85
2022/11/21 07:35:57;;;;;;;22.48;12.15;;;;;;;5.23;84.26;98728.91;5050236;28;20183;-85
2022/11/21 07:38:24;;;;;;;26.92;12.80;;;;;;;5.14;84.94;98729.38;5050144;28;20049;-84
2022/11/21 07:40:49;;;;;;;24.85;13.80;;;;;;;5.31;85.09;98719.53;5050160;28;20028;-85
2022/11/21 07:43:14;;;;;;;22.87;11.23;;;;;;;5.29;84.52;98724.38;5039532;28;20037;-85
2022/11/21 07:45:39;;;;;;;27.90;13.83;;;;;;;5.32;84.38;98721.97;5030302;28;20251;-86
2022/11/21 07:48:06;;;;;;;22.60;13.03;;;;;;;5.55;83.59;98711.09;5030618;28;20966;-85
2022/11/21 07:50:32;;;;;;;25.30;13.48;;;;;;;5.63;83.34;98707.94;5030131;28;20289;-85
2022/11/21 07:52:58;;;;;;;25.38;13.35;;;;;;;5.46;83.61;98708.03;5031732;28;20043;-85
2022/11/21 07:55:24;;;;;;;24.25;13.90;;;;;;;5.33;84.65;98710.09;5041398;28;20053;-86
2022/11/21 07:58:16;;;;;;;21.67;12.82;;;;;;;5.35;84.18;98716.06;5042283;28;20080;-86
2022/11/21 08:00:41;;;;;;;21.17;12.77;;;;;;;5.38;84.38;98714.72;5046484;28;20040;-86
2022/11/21 08:03:07;;;;;;;22.48;13.20;;;;;;;5.47;83.86;98715.09;5045678;28;20167;-86
2022/11/21 08:05:43;;;;;;;24.40;14.50;;;;;;;5.37;84.07;98715.78;5042032;28;20095;-86
2022/11/21 08:08:12;;;;;;;28.33;13.70;;;;;;;5.45;84.33;98712.63;5042002;28;20067;-85
2022/11/21 08:10:44;;;;;;;23.85;12.70;;;;;;;5.55;84.24;98705.69;5043555;28;20599;-85
2022/11/21 08:13:10;;;;;;;28.35;14.00;;;;;;;5.63;83.62;98699.81;5044408;28;20047;-85
2022/11/21 08:15:36;;;;;;;25.70;13.32;;;;;;;5.57;83.90;98700.84;5043433;28;20033;-85
2022/11/21 08:18:07;;;;;;;22.02;12.75;;;;;;;5.70;84.02;98703.09;5046617;28;20029;-86
2022/11/21 08:20:33;;;;;;;27.15;13.73;;;;;;;5.55;84.71;98705.69;5044004;28;20172;-84
2022/11/21 08:22:58;;;;;;;26.77;15.03;;;;;;;5.50;85.37;98698.34;5038804;28;20124;-85
2022/11/21 08:25:23;;;;;;;26.47;13.30;;;;;;;5.65;85.35;98689.56;5041590;28;20282;-85
2022/11/21 08:27:48;;;;;;;34.10;15.67;;;;;;;5.63;85.34;98685.47;5042971;28;20372;-84
2022/11/21 08:30:14;;;;;;;35.28;17.88;;;;;;;5.84;84.25;98684.53;5040911;28;20278;-85
2022/11/21 08:32:39;;;;;;;26.02;14.43;;;;;;;5.87;84.41;98682.41;5041045;28;20071;-85
2022/11/21 08:35:05;;;;;;;24.05;12.25;;;;;;;5.92;83.92;98674.34;5040432;28;20274;-84
2022/11/21 08:37:30;;;;;;;28.65;12.60;;;;;;;5.87;83.78;98683.22;5041138;28;20025;-84
2022/11/21 08:39:57;;;;;;;36.27;15.47;;;;;;;5.75;85.21;98682.59;5042096;28;20044;-86
2022/11/21 08:42:23;;;;;;;27.92;13.70;;;;;;;5.75;85.01;98683.41;5042519;28;20285;-84
2022/11/21 08:44:48;;;;;;;34.75;17.20;;;;;;;5.76;85.35;98678.78;5041634;28;20025;-86
2022/11/21 08:47:14;;;;;;;32.67;14.63;;;;;;;5.88;84.80;98684.03;5041458;28;20036;-86
2022/11/21 08:49:39;;;;;;;39.60;16.80;;;;;;;5.96;84.19;98676.22;5044318;28;20277;-86
2022/11/21 08:52:04;;;;;;;30.65;16.17;;;;;;;5.98;84.53;98678.66;5040077;28;20328;-85
2022/11/21 08:54:30;;;;;;;35.35;17.48;;;;;;;5.91;84.60;98684.34;5043559;28;20025;-85
2022/11/21 08:56:55;;;;;;;43.15;21.60;;;;;;;5.68;85.88;98678.22;5041982;28;20179;-84
2022/11/21 08:59:20;;;;;;;33.60;15.23;;;;;;;5.78;85.57;98674.75;5040944;28;20032;-84
2022/11/21 09:01:45;;;;;;;32.40;15.53;;;;;;;5.83;85.96;98677.53;5042734;28;20061;-85
2022/11/21 09:04:11;;;;;;;42.33;19.92;;;;;;;5.94;84.71;98688.38;5041178;28;20773;-85
2022/11/21 09:06:36;;;;;;;39.88;20.27;;;;;;;5.88;85.37;98686.75;5038969;28;20034;-85
2022/11/21 09:09:04;;;;;;;36.75;16.45;;;;;;;5.78;86.05;98684.75;5040109;28;20226;-84
2022/11/21 09:11:30;;;;;;;33.03;16.08;;;;;;;5.93;85.14;98690.28;5040703;28;20020;-85
2022/11/21 09:19:23;;;;;;;31.02;16.98;;;;;;;6.05;85.46;98683.88;5046854;28;20811;-89
2022/11/21 09:21:49;;;;;;;32.97;14.65;;;;;;;6.15;85.17;98688.56;5052276;28;20060;-87
2022/11/21 09:24:15;;;;;;;37.13;19.00;;;;;;;6.12;85.87;98687.19;5046007;28;20111;-89
2022/11/21 09:26:40;;;;;;;40.15;22.17;;;;;;;6.02;86.79;98679.00;5031865;28;20470;-85
2022/11/21 09:29:05;;;;;;;40.22;20.35;;;;;;;6.15;86.27;98688.56;5032069;28;20045;-86
2022/11/21 09:31:30;;;;;;;37.33;16.67;;;;;;;6.01;87.16;98678.16;5036986;28;20052;-85
2022/11/21 09:33:56;;;;;;;42.00;20.20;;;;;;;6.05;86.79;98673.03;5031287;28;20037;-85
2022/11/21 09:36:22;;;;;;;41.40;21.65;;;;;;;6.04;87.99;98671.44;5031715;28;20254;-86
2022/11/21 09:38:50;;;;;;;37.42;21.20;;;;;;;6.07;87.41;98665.50;5040765;28;20028;-86
2022/11/21 09:41:51;;;;;;;41.80;19.98;;;;;;;6.16;86.96;98669.34;5042799;28;20075;-86
2022/11/21 09:44:45;;;;;;;43.75;20.27;;;;;;;6.15;87.30;98658.78;5039980;28;20069;-85
2022/11/21 09:47:25;;;;;;;;;;;;;;;6.15;87.09;98662.31;5047463;28;20116;-87
2022/11/21 09:50:03;;;;;;;40.05;20.35;;;;;;;6.13;87.59;98671.75;5036702;28;19944;-87
2022/11/21 09:52:43;;;;;;;47.50;23.63;;;;;;;6.27;87.20;98664.81;5034876;28;20033;-85
2022/11/21 09:55:40;;;;;;;40.17;22.38;;;;;;;6.41;86.83;98667.84;5051152;28;20025;-85
2022/11/21 09:58:24;;;;;;;33.47;18.00;;;;;;;6.34;87.08;98667.28;5010367;28;20064;-83
2022/11/21 10:00:50;;;;;;;37.67;17.75;;;;;;;6.45;86.98;98670.03;5030226;28;20027;-85
2022/11/21 10:03:17;;;;;;;38.15;19.95;;;;;;;6.48;86.86;98658.66;5041332;28;20509;-86
2022/11/21 10:06:10;;;;;;;34.05;17.55;;;;;;;6.48;86.72;98662.19;5051146;28;20466;-85
2022/11/21 10:09:03;;;;;;;28.38;15.23;;;;;;;6.58;86.66;98658.72;5050868;28;20029;-86
2022/11/21 10:15:08;;;;;;;31.90;15.68;;;;;;;6.67;86.39;98644.66;5032560;28;20095;-90
2022/11/21 10:17:59;;;;;;;26.92;15.55;;;;;;;6.83;86.24;98649.03;5029919;28;20060;-85
2022/11/21 10:20:49;;;;;;;34.28;17.20;;;;;;;6.78;87.73;98635.47;5031549;28;20112;-86
2022/11/21 10:23:23;;;;;;;29.23;15.52;;;;;;;7.05;86.05;98626.31;5047287;28;20056;-84
2022/11/21 10:26:26;;;;;;;28.60;15.30;;;;;;;7.01;86.08;98625.22;5051133;28;20381;-86
2022/11/21 10:29:00;;;;;;;33.05;15.75;;;;;;;7.16;86.37;98618.19;5050824;28;20037;-86
2022/11/21 10:31:33;;;;;;;36.80;14.95;;;;;;;7.26;85.96;98612.75;5050320;28;20032;-83
2022/11/21 10:34:01;;;;;;;21.20;12.85;;;;;;;7.17;86.59;98607.06;5034463;28;20473;-84
2022/11/21 10:36:37;;;;;;;29.27;16.33;;;;;;;7.22;86.43;98598.94;5031024;28;20458;-83
2022/11/21 10:39:28;;;;;;;21.92;9.90;;;;;;;7.18;86.48;98589.72;5044081;28;20528;-87
2022/11/21 10:42:02;;;;;;;27.38;15.60;;;;;;;7.02;87.08;98588.88;5051142;28;20048;-85
2022/11/21 10:47:29;;;;;;;27.60;13.00;;;;;;;7.12;87.16;98578.06;5030770;28;20036;-85
2022/11/21 10:50:19;;;;;;;25.42;13.25;;;;;;;7.18;86.98;98578.06;5049800;28;20037;-84
2022/11/21 10:52:48;;;;;;;22.35;10.43;;;;;;;7.07;87.36;98567.22;5050028;28;20039;-83
2022/11/21 10:55:15;;;;;;;18.17;11.52;;;;;;;7.27;87.03;98564.78;5049805;28;20045;-93
2022/11/21 10:57:48;;;;;;;24.20;12.60;;;;;;;7.29;87.18;98558.00;5050164;28;20057;-82
2022/11/21 11:00:21;;;;;;;26.40;14.02;;;;;;;7.22;86.83;98552.06;5042978;28;20029;-84
2022/11/21 11:02:55;;;;;;;21.65;12.10;;;;;;;7.26;87.05;98553.09;5045828;28;20033;-84
2022/11/21 11:05:23;;;;;;;20.92;10.77;;;;;;;7.47;86.58;98544.94;5050289;28;20036;-83
2022/11/21 11:08:09;;;;;;;23.50;10.95;;;;;;;7.53;86.68;98541.16;5050033;28;20036;-83
2022/11/21 11:10:39;;;;;;;26.20;11.80;;;;;;;7.48;86.91;98538.47;5050151;28;20067;-87
2022/11/21 11:16:02;;;;;;;19.10;9.77;;;;;;;7.46;87.02;98537.91;5042077;28;20123;-83
2022/11/21 11:18:27;;;;;;;19.83;9.55;;;;;;;7.54;87.08;98537.34;5043096;28;20037;-84
2022/11/21 11:21:11;;;;;;;15.30;9.88;;;;;;;7.58;87.00;98532.19;5043928;28;20625;-84
2022/11/21 11:23:36;;;;;;;23.75;10.82;;;;;;;7.57;87.01;98531.38;5037315;28;20036;-83
2022/11/21 11:26:01;;;;;;;23.83;10.48;;;;;;;7.47;87.83;98521.38;5032719;28;20053;-84
2022/11/21 11:28:34;;;;;;;25.67;10.57;;;;;;;7.59;87.12;98512.09;5030168;28;20558;-84
2022/11/21 11:31:00;;;;;;;18.92;10.35;;;;;;;7.61;86.78;98514.56;5042788;28;20029;-84
2022/11/21 11:33:33;;;;;;;21.77;8.85;;;;;;;7.64;86.69;98509.38;5051719;28;20037;-84
2022/11/21 11:36:20;;;;;;;17.65;10.70;;;;;;;7.69;87.03;98500.41;5053512;28;20216;-84
2022/11/21 11:38:54;;;;;;;18.65;8.73;;;;;;;7.91;85.45;98496.53;5053665;28;20203;-84
2022/11/21 11:48:09;;;;;;;13.57;7.85;;;;;;;7.49;85.51;98485.81;5041149;28;20087;-83
2022/11/21 11:50:45;;;;;;;12.35;5.85;;;;;;;7.50;84.61;98487.47;5051193;28;20048;-83
2022/11/21 11:53:17;;;;;;;14.23;7.05;;;;;;;7.66;84.17;98487.41;5050173;28;20083;-83
2022/11/21 11:55:46;;;;;;;15.55;6.10;;;;;;;7.78;84.36;98479.78;5053213;28;20028;-83
2022/11/21 11:58:33;;;;;;;17.98;6.70;;;;;;;7.85;84.77;98482.16;5052843;28;20072;-83
2022/11/21 12:01:36;;;;;;;12.80;6.22;;;;;;;7.65;85.66;98466.78;5046756;28;20121;-83
2022/11/21 12:04:09;;;;;;;18.75;7.82;;;;;;;7.76;85.10;98468.38;5042294;28;20028;-84